createdAt,value
2018-04-24T00:01:10.578Z,4.47
2018-04-24T00:03:38.184Z,5.10
2018-04-24T00:06:05.840Z,4.77
2018-04-24T00:08:33.594Z,4.43
2018-04-24T00:11:01.237Z,4.47
2018-04-24T00:13:28.884Z,4.93
2018-04-24T00:15:56.520Z,4.80
2018-04-24T00:18:24.196Z,5.03
2018-04-24T00:20:52.539Z,5.17
2018-04-24T00:23:20.181Z,4.70
2018-04-24T00:25:47.804Z,4.90
2018-04-24T00:28:16.176Z,4.80
2018-04-24T00:30:43.746Z,5.03
2018-04-24T00:33:11.398Z,5.10
2018-04-24T00:35:39.050Z,5.27
2018-04-24T00:38:07.428Z,5.30
2018-04-24T00:40:35.857Z,4.70
2018-04-24T00:43:03.445Z,4.60
2018-04-24T00:45:31.029Z,4.90
2018-04-24T00:47:59.446Z,5.13
2018-04-24T00:50:27.084Z,5.23
2018-04-24T00:52:54.664Z,5.10
2018-04-24T00:55:22.334Z,5.00
2018-04-24T00:57:49.999Z,4.77
2018-04-24T01:00:17.657Z,4.23
2018-04-24T01:02:45.636Z,4.40
2018-04-24T01:05:13.217Z,4.50
2018-04-24T01:07:40.892Z,4.10
2018-04-24T01:10:09.276Z,4.00
2018-04-24T01:12:37.666Z,4.57
2018-04-24T01:15:05.244Z,4.50
2018-04-24T01:17:32.918Z,3.97
2018-04-24T01:20:00.545Z,3.77
2018-04-24T01:22:28.954Z,4.20
2018-04-24T01:24:56.703Z,4.07
2018-04-24T01:27:24.359Z,4.23
2018-04-24T01:29:51.971Z,4.60
2018-04-24T01:32:19.577Z,3.70
2018-04-24T01:34:47.196Z,4.03
2018-04-24T01:37:16.186Z,4.40
2018-04-24T01:39:43.795Z,3.93
2018-04-24T01:42:11.397Z,4.03
2018-04-24T01:44:39.014Z,3.97
2018-04-24T01:47:06.705Z,3.80
2018-04-24T01:49:34.404Z,4.23
2018-04-24T01:52:02.765Z,5.13
2018-04-24T01:54:30.368Z,4.03
2018-04-24T01:56:57.989Z,4.03
2018-04-24T01:59:25.625Z,4.43
2018-04-24T02:01:53.685Z,4.17
2018-04-24T02:04:22.037Z,4.60
2018-04-24T02:06:49.738Z,4.27
2018-04-24T02:09:17.411Z,4.17
2018-04-24T02:11:45.023Z,4.57
2018-04-24T02:14:12.689Z,4.37
2018-04-24T02:16:40.272Z,4.07
2018-04-24T02:19:07.882Z,4.03
2018-04-24T02:21:36.304Z,4.20
2018-04-24T02:24:03.937Z,4.23
2018-04-24T02:26:31.570Z,4.10
2018-04-24T02:29:00.551Z,4.60
2018-04-24T02:31:28.143Z,4.17
2018-04-24T02:33:56.510Z,5.00
2018-04-24T02:36:24.943Z,4.20
2018-04-24T02:38:52.612Z,4.07
2018-04-24T02:41:20.203Z,4.13
2018-04-24T02:43:48.584Z,4.63
2018-04-24T02:46:17.062Z,4.20
2018-04-24T02:48:45.423Z,4.20
2018-04-24T02:51:13.073Z,4.43
2018-04-24T02:53:40.737Z,4.27
2018-04-24T02:56:08.487Z,4.47
2018-04-24T02:58:36.074Z,3.73
2018-04-24T03:01:03.714Z,3.80
2018-04-24T03:03:31.354Z,4.50
2018-04-24T03:05:58.939Z,4.07
2018-04-24T03:08:26.598Z,4.47
2018-04-24T03:10:54.211Z,4.30
2018-04-24T03:13:21.842Z,4.50
2018-04-24T03:15:50.256Z,3.87
2018-04-24T03:18:18.513Z,4.03
2018-04-24T03:20:46.110Z,3.47
2018-04-24T03:23:13.724Z,3.97
2018-04-24T03:25:42.064Z,3.60
2018-04-24T03:28:09.639Z,3.83
2018-04-24T03:30:37.253Z,3.57
2018-04-24T03:33:04.857Z,3.40
2018-04-24T03:35:34.036Z,4.10
2018-04-24T03:38:01.683Z,3.67
2018-04-24T03:40:29.303Z,4.00
2018-04-24T03:42:57.662Z,4.20
2018-04-24T03:45:25.338Z,4.07
2018-04-24T03:47:53.757Z,3.63
2018-04-24T03:50:21.390Z,4.10
2018-04-24T03:52:49.057Z,4.17
2018-04-24T03:55:16.644Z,4.17
2018-04-24T03:57:44.324Z,4.20
2018-04-24T04:00:11.909Z,4.10
2018-04-24T04:02:40.289Z,4.43
2018-04-24T04:05:08.725Z,4.03
2018-04-24T04:07:36.432Z,4.40
2018-04-24T04:10:04.928Z,4.60
2018-04-24T04:12:32.535Z,4.40
2018-04-24T04:15:00.184Z,4.80
2018-04-24T04:17:39.775Z,4.80
2018-04-24T04:20:20.076Z,5.03
2018-04-24T04:22:59.857Z,4.83
2018-04-24T04:25:27.522Z,5.07
2018-04-24T04:27:55.912Z,4.60
2018-04-24T04:30:24.303Z,4.70
2018-04-24T04:32:52.721Z,5.07
2018-04-24T04:35:20.986Z,4.73
2018-04-24T04:37:49.954Z,5.00
2018-04-24T04:40:17.648Z,5.27
2018-04-24T04:42:45.293Z,4.63
2018-04-24T04:45:12.874Z,4.60
2018-04-24T04:47:40.524Z,4.50
2018-04-24T04:50:08.174Z,4.27
2018-04-24T04:52:35.789Z,4.73
2018-04-24T04:55:03.407Z,4.40
2018-04-24T04:57:31.053Z,4.70
2018-04-24T04:59:58.701Z,4.37
2018-04-24T05:02:26.297Z,4.47
2018-04-24T05:04:53.949Z,5.27
2018-04-24T05:07:21.615Z,4.80
2018-04-24T05:09:49.255Z,5.20
2018-04-24T05:12:16.843Z,4.93
2018-04-24T05:14:44.504Z,5.03
2018-04-24T05:17:12.121Z,5.83
2018-04-24T05:19:39.779Z,6.17
2018-04-24T05:22:08.133Z,6.27
2018-04-24T05:24:35.741Z,5.40
2018-04-24T05:27:03.407Z,4.80
2018-04-24T05:29:31.033Z,4.87
2018-04-24T05:31:59.408Z,5.67
2018-04-24T05:34:27.823Z,5.33
2018-04-24T05:36:55.449Z,5.07
2018-04-24T05:39:23.992Z,5.27
2018-04-24T05:41:53.097Z,5.30
2018-04-24T05:44:21.551Z,5.10
2018-04-24T05:46:49.889Z,6.07
2018-04-24T05:49:17.522Z,4.97
2018-04-24T05:51:45.925Z,5.40
2018-04-24T05:54:14.334Z,5.27
2018-04-24T05:56:41.985Z,4.90
2018-04-24T05:59:09.572Z,5.30
2018-04-24T06:01:37.189Z,5.43
2018-04-24T06:04:04.875Z,5.23
2018-04-24T06:06:32.541Z,5.03
2018-04-24T06:09:00.501Z,5.17
2018-04-24T06:11:28.197Z,5.10
2018-04-24T06:13:55.852Z,4.80
2018-04-24T06:16:23.452Z,5.30
2018-04-24T06:18:51.831Z,4.97
2018-04-24T06:21:20.226Z,5.10
2018-04-24T06:23:47.835Z,4.77
2018-04-24T06:26:15.592Z,5.70
2018-04-24T06:28:43.459Z,5.17
2018-04-24T06:31:11.085Z,5.40
2018-04-24T06:33:38.838Z,4.93
2018-04-24T06:36:06.516Z,5.27
2018-04-24T06:38:34.942Z,6.03
2018-04-24T06:41:03.362Z,6.13
2018-04-24T06:43:30.997Z,5.77
2018-04-24T06:45:59.438Z,6.57
2018-04-24T06:48:27.118Z,30.10
2018-04-24T06:50:56.102Z,46.33
2018-04-24T06:53:23.765Z,77.27
2018-04-24T06:55:51.461Z,43.97
2018-04-24T06:58:19.146Z,23.97
2018-04-24T07:00:47.021Z,19.60
2018-04-24T07:03:14.615Z,7.23
2018-04-24T07:05:42.952Z,6.53
2018-04-24T07:08:10.600Z,7.77
2018-04-24T07:10:38.203Z,14.03
2018-04-24T07:13:05.856Z,13.10
2018-04-24T07:15:33.491Z,12.07
2018-04-24T07:18:01.132Z,7.63
2018-04-24T07:20:28.711Z,8.77
2018-04-24T07:22:56.575Z,9.07
2018-04-24T07:25:24.214Z,10.87
2018-04-24T07:27:52.257Z,11.77
2018-04-24T07:30:19.931Z,11.40
2018-04-24T07:32:48.317Z,10.90
2018-04-24T07:35:16.675Z,13.23
2018-04-24T07:37:45.122Z,14.47
2018-04-24T07:40:12.783Z,15.20
2018-04-24T07:42:40.444Z,11.67
2018-04-24T07:45:08.303Z,11.17
2018-04-24T07:47:35.927Z,10.53
2018-04-24T07:50:03.524Z,12.53
2018-04-24T07:52:32.111Z,12.73
2018-04-24T07:54:59.747Z,15.07
2018-04-24T07:57:27.642Z,13.97
2018-04-24T07:59:55.321Z,12.43
2018-04-24T08:02:22.977Z,14.57
2018-04-24T08:04:50.581Z,12.43
2018-04-24T08:07:19.121Z,14.03
2018-04-24T08:09:47.009Z,13.83
2018-04-24T08:12:15.371Z,17.60
2018-04-24T08:14:42.976Z,15.83
2018-04-24T08:17:10.598Z,17.10
2018-04-24T08:19:39.060Z,15.23
2018-04-24T08:22:06.648Z,15.57
2018-04-24T08:24:34.337Z,15.30
2018-04-24T08:27:01.920Z,20.63
2018-04-24T08:29:29.538Z,16.47
2018-04-24T08:31:57.972Z,17.97
2018-04-24T08:34:25.607Z,18.00
2018-04-24T08:36:53.331Z,16.30
2018-04-24T08:39:22.654Z,14.87
2018-04-24T08:41:51.636Z,13.57
2018-04-24T08:44:21.073Z,12.53
2018-04-24T08:46:51.475Z,12.07
2018-04-24T08:49:20.626Z,21.13
2018-04-24T08:51:50.065Z,14.37
2018-04-24T08:54:19.172Z,17.77
2018-04-24T08:56:49.172Z,16.10
2018-04-24T08:59:19.848Z,13.63
2018-04-24T09:01:49.213Z,12.80
2018-04-24T09:04:17.056Z,17.03
2018-04-24T09:06:44.725Z,20.03
2018-04-24T09:09:13.151Z,11.57
2018-04-24T09:11:40.743Z,9.10
2018-04-24T09:14:08.422Z,8.17
2018-04-24T09:16:36.061Z,8.67
2018-04-24T09:19:03.710Z,11.50
2018-04-24T09:21:31.303Z,9.00
2018-04-24T09:23:58.963Z,9.90
2018-04-24T09:26:27.328Z,9.13
2018-04-24T09:28:54.990Z,6.80
2018-04-24T09:34:16.460Z,4.73
2018-04-24T09:36:44.040Z,5.33
2018-04-24T09:39:11.617Z,5.17
2018-04-24T09:41:39.839Z,5.07
2018-04-24T09:44:08.230Z,5.40
2018-04-24T09:46:35.884Z,5.30
2018-04-24T09:49:04.247Z,5.60
2018-04-24T09:51:32.649Z,5.60
2018-04-24T09:54:00.237Z,5.60
2018-04-24T09:56:27.819Z,6.00
2018-04-24T09:58:55.427Z,4.93
2018-04-24T10:01:26.597Z,5.23
2018-04-24T10:03:54.176Z,5.03
2018-04-24T10:06:21.756Z,5.40
2018-04-24T10:08:50.176Z,5.73
2018-04-24T10:11:17.764Z,4.83
2018-04-24T10:13:45.437Z,5.23
2018-04-24T10:16:13.047Z,5.10
2018-04-24T10:18:40.668Z,5.60
2018-04-24T10:21:08.305Z,6.90
2018-04-24T10:23:35.967Z,6.60
2018-04-24T10:26:03.598Z,6.23
2018-04-24T10:28:31.256Z,6.40
2018-04-24T10:30:59.658Z,6.60
2018-04-24T10:33:27.259Z,7.17
2018-04-24T10:35:55.685Z,6.57
2018-04-24T10:38:23.308Z,6.27
2018-04-24T10:40:51.685Z,5.97
2018-04-24T10:43:20.113Z,5.60
2018-04-24T10:45:47.741Z,5.90
2018-04-24T10:48:15.957Z,6.40
2018-04-24T10:50:43.573Z,6.60
2018-04-24T10:53:11.979Z,6.53
2018-04-24T10:55:40.311Z,6.40
2018-04-24T10:58:08.767Z,5.83
2018-04-24T11:00:36.385Z,5.90
2018-04-24T11:03:03.980Z,6.30
2018-04-24T11:05:31.643Z,6.43
2018-04-24T11:07:59.263Z,6.70
2018-04-24T11:10:26.917Z,6.40
2018-04-24T11:12:54.539Z,6.50
2018-04-24T11:15:22.217Z,6.53
2018-04-24T11:17:50.701Z,6.50
2018-04-24T11:20:19.057Z,7.00
2018-04-24T11:22:46.695Z,6.60
2018-04-24T11:25:14.352Z,6.77
2018-04-24T11:27:42.017Z,6.90
2018-04-24T11:30:09.612Z,7.13
2018-04-24T11:32:38.152Z,6.90
2018-04-24T11:35:05.915Z,7.63
2018-04-24T11:37:33.570Z,7.33
2018-04-24T11:40:01.245Z,6.97
2018-04-24T11:42:28.876Z,7.60
2018-04-24T11:44:56.501Z,7.97
2018-04-24T11:47:24.930Z,8.03
2018-04-24T11:49:52.934Z,7.63
2018-04-24T11:52:20.574Z,8.23
2018-04-24T11:54:49.288Z,8.20
2018-04-24T11:57:16.927Z,8.67
2018-04-24T11:59:44.580Z,7.80
2018-04-24T12:02:12.250Z,7.20
2018-04-24T12:04:40.489Z,7.40
2018-04-24T12:07:08.114Z,7.03
2018-04-24T12:09:36.505Z,6.80
2018-04-24T12:12:05.541Z,6.73
2018-04-24T12:14:33.148Z,6.47
2018-04-24T12:17:01.533Z,6.43
2018-04-24T12:19:29.924Z,5.73
2018-04-24T12:21:58.730Z,5.90
2018-04-24T12:24:26.416Z,5.70
2018-04-24T12:26:54.028Z,6.47
2018-04-24T12:29:22.418Z,6.20
2018-04-24T12:31:50.063Z,6.57
2018-04-24T12:34:18.457Z,6.10
2018-04-24T12:36:46.102Z,5.87
2018-04-24T12:39:14.626Z,5.50
2018-04-24T12:41:42.242Z,5.53
2018-04-24T12:44:12.200Z,4.50
2018-04-24T12:46:39.872Z,4.50
2018-04-24T12:49:07.657Z,3.97
2018-04-24T12:51:35.293Z,3.70
2018-04-24T12:54:02.900Z,4.17
2018-04-24T12:56:31.327Z,4.40
2018-04-24T12:58:59.042Z,4.07
2018-04-24T13:01:26.596Z,4.03
2018-04-24T13:03:55.061Z,4.30
2018-04-24T13:06:22.630Z,4.23
2018-04-24T13:08:51.020Z,4.53
2018-04-24T13:11:19.389Z,4.40
2018-04-24T13:13:47.852Z,4.57
2018-04-24T13:16:15.461Z,4.53
2018-04-24T13:18:43.071Z,4.73
2018-04-24T13:21:10.724Z,4.47
2018-04-24T13:23:38.418Z,4.40
2018-04-24T13:26:07.416Z,4.73
2018-04-24T13:28:35.799Z,5.03
2018-04-24T13:31:03.435Z,5.03
2018-04-24T13:33:31.047Z,5.00
2018-04-24T13:35:58.663Z,5.33
2018-04-24T13:38:27.792Z,5.90
2018-04-24T13:40:55.433Z,5.73
2018-04-24T13:43:23.845Z,5.43
2018-04-24T13:45:51.509Z,5.70
2018-04-24T13:48:19.152Z,5.33
2018-04-24T13:50:46.835Z,5.67
2018-04-24T13:53:15.175Z,6.07
2018-04-24T13:55:42.783Z,5.20
2018-04-24T13:58:10.427Z,6.00
2018-04-24T14:00:38.115Z,5.93
2018-04-24T14:03:06.773Z,6.00
2018-04-24T14:05:34.408Z,5.67
2018-04-24T14:08:02.065Z,6.03
2018-04-24T14:10:29.694Z,5.40
2018-04-24T14:12:57.332Z,6.07
2018-04-24T14:15:24.989Z,6.00
2018-04-24T14:17:53.212Z,5.90
2018-04-24T14:20:21.587Z,5.73
2018-04-24T14:22:49.977Z,6.40
2018-04-24T14:25:17.603Z,6.17
2018-04-24T14:27:45.996Z,5.67
2018-04-24T14:30:14.392Z,6.10
2018-04-24T14:32:42.088Z,5.77
2018-04-24T14:35:09.723Z,5.30
2018-04-24T14:37:37.407Z,5.57
2018-04-24T14:40:05.028Z,5.00
2018-04-24T14:42:32.685Z,5.73
2018-04-24T14:45:00.409Z,5.80
2018-04-24T14:47:28.857Z,5.77
2018-04-24T14:49:56.471Z,5.77
2018-04-24T14:52:24.071Z,5.70
2018-04-24T14:54:51.694Z,5.70
2018-04-24T14:57:19.370Z,5.27
2018-04-24T14:59:48.813Z,5.00
2018-04-24T15:02:16.458Z,5.47
2018-04-24T15:04:44.094Z,5.23
2018-04-24T15:07:12.638Z,5.40
2018-04-24T15:09:40.275Z,5.70
2018-04-24T15:12:07.924Z,6.23
2018-04-24T15:14:35.547Z,5.83
2018-04-24T15:17:03.953Z,5.63
2018-04-24T15:19:31.615Z,5.87
2018-04-24T15:21:59.255Z,5.60
2018-04-24T15:24:27.697Z,5.90
2018-04-24T15:26:55.290Z,6.47
2018-04-24T15:29:23.674Z,5.80
2018-04-24T15:31:52.064Z,5.60
2018-04-24T15:34:19.745Z,5.60
2018-04-24T15:36:47.377Z,5.47
2018-04-24T15:39:15.053Z,5.80
2018-04-24T15:41:42.665Z,5.80
2018-04-24T15:44:10.875Z,5.77
2018-04-24T15:46:38.553Z,6.13
2018-04-24T15:49:06.184Z,5.40
2018-04-24T15:51:34.556Z,5.87
2018-04-24T15:54:02.941Z,5.57
2018-04-24T15:56:31.325Z,6.13
2018-04-24T15:58:59.872Z,5.50
2018-04-24T16:01:27.465Z,5.30
2018-04-24T16:03:56.292Z,5.37
2018-04-24T16:06:24.264Z,5.17
2018-04-24T16:08:52.230Z,5.20
2018-04-24T16:11:20.663Z,5.47
2018-04-24T16:13:49.125Z,5.43
2018-04-24T16:16:17.061Z,5.53
2018-04-24T16:18:44.660Z,5.53
2018-04-24T16:21:12.357Z,5.53
2018-04-24T16:23:40.016Z,5.23
2018-04-24T16:26:07.636Z,5.20
2018-04-24T16:28:35.255Z,5.43
2018-04-24T16:31:02.871Z,5.40
2018-04-24T16:33:31.901Z,5.57
2018-04-24T16:35:59.626Z,5.37
2018-04-24T16:38:28.046Z,5.50
2018-04-24T16:40:55.653Z,5.33
2018-04-24T16:43:24.077Z,5.17
2018-04-24T16:45:51.703Z,4.87
2018-04-24T16:48:20.096Z,5.43
2018-04-24T16:50:47.727Z,5.03
2018-04-24T16:53:15.338Z,5.50
2018-04-24T16:55:43.000Z,5.47
2018-04-24T16:58:10.620Z,5.33
2018-04-24T17:00:39.074Z,5.50
2018-04-24T17:03:09.020Z,5.10
2018-04-24T17:05:36.745Z,5.60
2018-04-24T17:08:04.521Z,5.30
2018-04-24T17:10:32.124Z,5.63
2018-04-24T17:12:59.776Z,5.13
2018-04-24T17:15:27.379Z,5.83
2018-04-24T17:17:55.016Z,5.80
2018-04-24T17:20:22.646Z,5.40
2018-04-24T17:22:51.028Z,5.37
2018-04-24T17:25:19.426Z,5.20
2018-04-24T17:27:47.747Z,5.20
2018-04-24T17:30:15.522Z,5.77
2018-04-24T17:32:43.937Z,6.90
2018-04-24T17:35:11.549Z,5.60
2018-04-24T17:37:39.198Z,5.67
2018-04-24T17:40:06.860Z,5.27
2018-04-24T17:42:34.479Z,5.50
2018-04-24T17:45:02.082Z,5.60
2018-04-24T17:47:29.836Z,5.33
2018-04-24T17:49:57.582Z,5.93
2018-04-24T17:52:25.957Z,7.30
2018-04-24T17:54:54.537Z,6.07
2018-04-24T17:57:23.367Z,5.43
2018-04-24T17:59:51.007Z,5.50
2018-04-24T18:02:18.768Z,5.20
2018-04-24T18:04:47.109Z,5.67
2018-04-24T18:07:14.967Z,6.33
2018-04-24T18:09:43.345Z,5.97
2018-04-24T18:12:11.933Z,6.90
2018-04-24T18:14:40.393Z,5.80
2018-04-24T18:17:09.223Z,5.43
2018-04-24T18:19:37.084Z,5.77
2018-04-24T18:22:04.786Z,5.90
2018-04-24T18:24:32.448Z,6.03
2018-04-24T18:27:00.695Z,6.43
2018-04-24T18:29:28.454Z,6.10
2018-04-24T18:31:56.846Z,5.87
2018-04-24T18:34:25.339Z,5.80
2018-04-24T18:36:52.963Z,6.80
2018-04-24T18:39:20.951Z,6.73
2018-04-24T18:41:48.599Z,6.50
2018-04-24T18:44:18.641Z,7.07
2018-04-24T18:46:48.241Z,6.40
2018-04-24T18:49:16.010Z,6.20
2018-04-24T18:51:43.659Z,6.00
2018-04-24T18:54:11.241Z,6.40
2018-04-24T18:56:39.502Z,5.70
2018-04-24T18:59:07.461Z,6.13
2018-04-24T19:01:35.098Z,6.20
2018-04-24T19:04:03.102Z,6.33
2018-04-24T19:06:31.544Z,7.40
2018-04-24T19:08:59.229Z,7.10
2018-04-24T19:11:26.921Z,6.40
2018-04-24T19:13:56.434Z,6.97
2018-04-24T19:16:24.867Z,7.30
2018-04-24T19:21:56.690Z,7.53
2018-04-24T19:24:30.906Z,7.17
2018-04-24T19:26:58.733Z,7.60
2018-04-24T19:29:26.397Z,6.97
2018-04-24T19:31:59.966Z,6.87
2018-04-24T19:34:27.634Z,7.17
2018-04-24T19:36:55.321Z,7.17
2018-04-24T19:39:29.407Z,6.87
2018-04-24T19:41:57.077Z,7.53
2018-04-24T19:44:24.673Z,7.80
2018-04-24T19:46:52.302Z,7.20
2018-04-24T19:49:25.614Z,7.20
2018-04-24T19:51:53.277Z,7.43
2018-04-24T19:54:20.962Z,7.33
2018-04-24T19:56:49.443Z,7.83
2018-04-24T19:59:17.926Z,7.30
2018-04-24T20:01:45.584Z,7.50
2018-04-24T20:04:13.936Z,6.90
2018-04-24T20:06:41.543Z,6.80
2018-04-24T20:09:09.985Z,7.40
2018-04-24T20:11:37.652Z,7.40
2018-04-24T20:14:05.309Z,7.67
2018-04-24T20:16:33.278Z,7.03
2018-04-24T20:19:01.970Z,7.33
2018-04-24T20:21:30.370Z,7.67
2018-04-24T20:23:58.859Z,7.33
2018-04-24T20:26:27.322Z,7.70
2018-04-24T20:28:54.957Z,7.80
2018-04-24T20:31:23.356Z,7.60
2018-04-24T20:33:50.980Z,7.70
2018-04-24T20:36:18.609Z,7.67
2018-04-24T20:38:46.285Z,8.90
2018-04-24T20:41:13.953Z,8.57
2018-04-24T20:43:41.565Z,8.27
2018-04-24T20:46:09.190Z,8.13
2018-04-24T20:48:36.884Z,7.97
2018-04-24T20:51:05.388Z,7.93
2018-04-24T20:53:33.079Z,8.53
2018-04-24T20:56:00.704Z,7.40
2018-04-24T20:58:29.098Z,7.10
2018-04-24T21:00:56.816Z,9.20
2018-04-24T21:03:24.449Z,7.77
2018-04-24T21:05:52.129Z,8.87
2018-04-24T21:08:19.707Z,8.33
2018-04-24T21:10:47.310Z,8.13
2018-04-24T21:13:15.023Z,8.10
2018-04-24T21:15:42.674Z,7.87
2018-04-24T21:18:10.625Z,8.10
2018-04-24T21:20:38.324Z,10.07
2018-04-24T21:23:06.728Z,8.83
2018-04-24T21:25:34.732Z,10.63
2018-04-24T21:28:02.360Z,8.33
2018-04-24T21:30:29.951Z,10.83
2018-04-24T21:32:57.619Z,8.83
2018-04-24T21:35:25.205Z,9.60
2018-04-24T21:37:52.867Z,10.47
2018-04-24T21:40:20.598Z,10.00
2018-04-24T21:42:48.463Z,10.00
2018-04-24T21:45:16.096Z,11.03
2018-04-24T21:47:43.733Z,11.03
2018-04-24T21:50:12.164Z,10.20
2018-04-24T21:52:39.800Z,9.93
2018-04-24T21:55:07.417Z,9.33
2018-04-24T21:57:35.036Z,9.83
2018-04-24T22:00:02.684Z,10.77
2018-04-24T22:02:30.271Z,10.60
2018-04-24T22:04:57.906Z,9.50
2018-04-24T22:07:25.598Z,9.50
2018-04-24T22:09:53.248Z,9.43
2018-04-24T22:12:20.923Z,9.53
2018-04-24T22:14:48.573Z,9.27
2018-04-24T22:17:16.333Z,9.07
2018-04-24T22:19:43.944Z,9.23
2018-04-24T22:22:12.295Z,9.33
2018-04-24T22:24:40.730Z,11.63
2018-04-24T22:27:08.376Z,9.57
2018-04-24T22:29:36.813Z,9.63
2018-04-24T22:32:04.526Z,9.73
2018-04-24T22:34:32.182Z,10.60
2018-04-24T22:36:59.847Z,10.23
2018-04-24T22:39:27.442Z,10.50
2018-04-24T22:41:55.132Z,10.97
2018-04-24T22:44:22.865Z,10.47
2018-04-24T22:46:50.496Z,10.37
2018-04-24T22:49:18.809Z,10.63
2018-04-24T22:51:46.581Z,10.23
2018-04-24T22:54:14.265Z,9.97
2018-04-24T22:56:41.923Z,10.70
2018-04-24T22:59:10.305Z,9.87
2018-04-24T23:01:38.668Z,10.13
2018-04-24T23:04:06.344Z,10.60
2018-04-24T23:06:34.740Z,12.47
2018-04-24T23:09:02.355Z,11.17
2018-04-24T23:11:41.970Z,10.87
2018-04-24T23:14:21.537Z,11.13
2018-04-24T23:17:01.375Z,11.83
2018-04-24T23:19:41.516Z,12.50
2018-04-24T23:22:09.261Z,11.33
2018-04-24T23:24:36.883Z,12.13
2018-04-24T23:27:05.432Z,11.97
2018-04-24T23:29:33.123Z,12.73
2018-04-24T23:32:02.325Z,13.33
2018-04-24T23:34:29.989Z,13.70
2018-04-24T23:36:58.377Z,13.30
2018-04-24T23:39:26.784Z,14.33
2018-04-24T23:41:54.408Z,14.17
2018-04-24T23:44:22.979Z,14.53
2018-04-24T23:46:50.632Z,15.47
2018-04-24T23:49:18.270Z,14.87
2018-04-24T23:51:45.895Z,16.30
2018-04-24T23:54:13.528Z,14.70
2018-04-24T23:56:41.222Z,15.43
2018-04-24T23:59:08.865Z,16.50
